Skip to content

Investors

Investors

Ownership Profile

Shareholder Breakdown
Shareholder Holders Values ($) % O/S Shares
Institution 78 89 43.71 6,650,367
Mutual Fund 33 12 6.12 930,786
Institutional Shareholder Rotation
Shareholder Holders Values Change ($) % O/S Shares Change
Buyers 37 5.68 2.82 428,354
Sellers 23 -5.23 2.56 -389,758
Net -- 0.45 0.26 38,596
Institutional Shareholder Concentration
Shareholder Values ($) % O/S Shares
Top 10 Inst. 68 33.66 5,121,724
Top 20 Inst. 79.82 39.26 5,974,507
Top 50 Inst. 88.03 43.36 6,597,453
Total Inst. 88.03 43.36 6,597,453
Institutional Shareholder Style
Shareholder Holders Values ($) % O/S Shares
Index 8 9 4.47 680,318
AggresGr 1 0 0.00 150
CoreGrowth 15 13 6.51 990,566
Growth 2 0 0.13 20,061
IncomeValue 4 1 0.43 65,984
BrokerDealer 7 8 3.72 565,382
GARP 6 4 1.87 284,332
HedgeFund 8 11 5.49 834,870
SectorSpecific 1 1 0.25 37,935
Specialty 1 0 0.05 7,871
CoreValue 5 0 0.21 32,439
DeepValue 4 1 0.61 92,424
Top Holders: Institutional Investor
Holder Shares Held % O/S Shares Change Filing Date
Gladstone (David John) 2,203,985 14.48 0 12/31/2017
Gladstone Future Trust 666,667 4.38 0 02/21/2017
Renaissance Technologies LLC 560,101 3.68 -109,999 12/31/2017
The Vanguard Group, Inc. 452,500 2.97 11,876 12/31/2017
New Jersey Division of Investment 300,000 1.97 0 12/31/2017
Wells Fargo Advisors 272,738 1.79 -3,165 12/31/2017
Foster & Motley, Inc. 224,033 1.47 -586 12/31/2017
AllianceBernstein L.P. 166,380 1.09 166,380 12/31/2017
Morgan Stanley Wealth Management 138,286 0.91 80,326 12/31/2017
Marathon Capital Management 137,034 0.90 -14,356 12/31/2017
Bard Associates Inc. 133,150 0.88 -500 12/31/2017
Diligent Investors, LLC 96,148 0.63 -2,425 12/31/2017
Deutsche Asset Management Americas 95,913 0.63 -47,378 12/31/2017
Horizon Kinetics LLC 91,300 0.60 0 12/31/2017
J.P. Morgan Securities LLC 87,965 0.58 -36,020 12/31/2017
Geode Capital Management, L.L.C. 80,282 0.53 0 12/31/2017
Bank of America Merrill Lynch (US) 70,688 0.46 600 12/31/2017
RBC Capital Markets Wealth Management 68,120 0.45 -566 12/31/2017
Millennium Management LLC 67,612 0.44 5,037 12/31/2017
BlackRock Institutional Trust Company, N.A. 61,605 0.40 -3,707 12/31/2017
Shufro, Rose & Co., LLC 46,800 0.31 -2,700 12/31/2017
Northern Trust Investments, Inc. 46,137 0.30 359 12/31/2017
Amundi Asset Management 44,514 0.29 -14,979 12/31/2017
Crow Point Partners, LLC 40,000 0.26 40,000 03/31/2018
The RMR Group LLC 37,935 0.25 17,935 12/31/2017
Keeley-Teton Advisors, LLC 37,040 0.24 8 12/31/2017
Janney Montgomery Scott LLC 36,845 0.24 5,632 03/31/2018
Goldman Sachs & Company, Inc. 28,826 0.19 9,782 12/31/2017
Asset Management One USA Inc. 26,223 0.17 7,951 12/31/2017
Bahl & Gaynor Investment Counsel, Inc. 24,375 0.16 100 12/31/2017
BNY Mellon Asset Management 23,085 0.15 94 12/31/2017
Mellon Capital Management Corporation 22,984 0.15 -585 12/31/2017
GVC Gaesco GestiĆ³n SGIIC S.A. 20,017 0.13 12 12/31/2017
BlueCrest Capital Management LLP 19,378 0.13 19,378 12/31/2017
Stelac Advisory Services LLC 16,468 0.11 -1,100 12/31/2017
State Teachers Retirement System of Ohio 15,083 0.10 1,923 03/31/2018
T. Rowe Price Associates, Inc. 13,700 0.09 0 12/31/2017
State Street Global Advisors (US) 12,366 0.08 12,366 12/31/2017
Northern Trust Global Investments 11,287 0.07 2,400 12/31/2017
Monashee Investment Management, LLC 10,874 0.07 10,874 12/31/2017
U.S. Bancorp Asset Management, Inc. 10,000 0.07 0 12/31/2017
Adelgren (Paul W) 9,943 0.07 1,700 02/23/2018
FCA Corp. 9,700 0.06 0 01/31/2018
BlackRock International Ltd. 9,635 0.06 -8,002 12/31/2017
Barclays Bank PLC 9,600 0.06 9,600 12/31/2017
Wilkinson (Walter H Jr) 9,582 0.06 4,700 02/23/2018
UBS Financial Services, Inc. 8,133 0.05 -3,423 12/31/2017
SEI Investments Management Corporation 7,871 0.05 -3,645 12/31/2017
Ladenburg Thalmann Asset Management Inc. (LTAM) 7,757 0.05 2,804 12/31/2017
Analytic Investors, LLC 6,788 0.04 3,683 12/31/2017

Ownership data is provided by Thomson Reuters, a third party service, and Gladstone Land Corporation does not maintain or provide information directly to this service.